Time;durP1;ratioP1;P1;durP2;ratioP2;P2;SDS_P1;SDS_P2;PMS_P1;PMS_P2;Temp;Humidity;BMP_temperature;BMP_pressure;BME280_temperature;BME280_humidity;BME280_pressure;Samples;Min_cycle;Max_cycle;Signal;HPM_P1;HPM_P2
2022/12/28 00:02:08;;;;;;;;;7.67;5.33;;;;;10.45;100.00;101860.00;5024859;28;45405;-79
2022/12/28 00:04:33;;;;;;;;;5.00;5.00;;;;;10.43;100.00;101860.16;5023648;28;45402;-80
2022/12/28 00:06:58;;;;;;;;;9.00;7.00;;;;;10.35;100.00;101827.28;5024820;28;45461;-80
2022/12/28 00:09:24;;;;;;;;;3.67;3.67;;;;;10.36;100.00;101844.44;5025749;28;45320;-79
2022/12/28 00:11:49;;;;;;;;;5.00;4.00;;;;;10.38;100.00;101837.03;5039948;28;47333;-79
2022/12/28 00:14:15;;;;;;;;;7.33;7.33;;;;;10.40;100.00;101835.06;5031096;28;45338;-80
2022/12/28 00:16:42;;;;;;;;;4.33;4.33;;;;;10.46;100.00;101845.44;5025757;28;45256;-80
2022/12/28 00:19:15;;;;;;;;;8.33;8.33;;;;;10.37;100.00;101830.75;5029086;28;45203;-79
2022/12/28 00:21:42;;;;;;;;;9.33;4.67;;;;;10.46;100.00;101834.56;5025607;28;45296;-80
2022/12/28 00:24:14;;;;;;;;;9.67;5.33;;;;;10.50;100.00;101836.06;5039784;28;45363;-79
2022/12/28 00:26:39;;;;;;;;;5.00;4.00;;;;;10.39;100.00;101822.47;5023201;28;45515;-79
2022/12/28 00:29:05;;;;;;;;;5.33;3.67;;;;;10.30;100.00;101823.22;5024976;28;45276;-79
2022/12/28 00:31:31;;;;;;;;;9.00;8.00;;;;;10.35;100.00;101810.97;5025626;28;45768;-80
2022/12/28 00:33:56;;;;;;;;;4.67;4.67;;;;;10.45;100.00;101805.66;5025972;28;45209;-79
2022/12/28 00:36:21;;;;;;;;;7.00;4.67;;;;;10.44;100.00;101798.53;5040741;28;45518;-79
2022/12/28 00:38:47;;;;;;;;;8.00;4.00;;;;;10.47;100.00;101792.84;5025638;28;45169;-79
2022/12/28 00:41:12;;;;;;;;;4.33;4.33;;;;;10.44;100.00;101791.25;5040064;28;45398;-81
2022/12/28 00:43:38;;;;;;;;;2.00;2.00;;;;;10.32;100.00;101791.34;5036941;28;45198;-80
2022/12/28 00:46:03;;;;;;;;;4.00;4.00;;;;;10.47;100.00;101784.69;5044613;28;45395;-80
2022/12/28 00:48:29;;;;;;;;;5.00;5.00;;;;;10.46;100.00;101761.22;5043801;28;45553;-81
2022/12/28 00:51:05;;;;;;;;;3.67;3.67;;;;;10.52;100.00;101774.28;5044927;28;45460;-80
2022/12/28 00:53:31;;;;;;;;;3.67;3.67;;;;;10.42;100.00;101774.19;5045373;28;45424;-81
2022/12/28 00:56:11;;;;;;;;;7.00;4.33;;;;;10.46;100.00;101775.66;5044963;28;45346;-81
2022/12/28 00:58:37;;;;;;;;;5.00;3.33;;;;;10.52;100.00;101785.16;5040451;28;45228;-81
2022/12/28 01:01:04;;;;;;;;;5.00;4.00;;;;;10.51;100.00;101778.03;5024433;28;45275;-82
2022/12/28 01:03:29;;;;;;;;;4.00;3.33;;;;;10.49;100.00;101778.16;5022933;28;45326;-82
2022/12/28 01:05:54;;;;;;;;;8.00;8.00;;;;;10.50;100.00;101769.00;5033807;28;45280;-81
2022/12/28 01:08:20;;;;;;;;;5.00;3.00;;;;;10.44;100.00;101760.50;5040193;28;45631;-81
2022/12/28 01:10:45;;;;;;;;;6.67;5.33;;;;;10.49;100.00;101766.41;5040068;28;47392;-81
2022/12/28 01:13:11;;;;;;;;;3.00;3.00;;;;;10.58;100.00;101767.53;5024099;28;45237;-80
2022/12/28 01:15:37;;;;;;;;;4.33;4.33;;;;;10.61;100.00;101773.56;5039989;28;45364;-81
2022/12/28 01:18:03;;;;;;;;;4.00;4.00;;;;;10.59;100.00;101763.84;5039472;28;45473;-81
2022/12/28 01:20:28;;;;;;;;;10.00;5.33;;;;;10.62;100.00;101772.59;5040739;28;45410;-82
2022/12/28 01:22:54;;;;;;;;;5.00;4.67;;;;;10.60;100.00;101752.81;5042846;28;45354;-81
2022/12/28 01:25:19;;;;;;;;;7.67;5.00;;;;;10.67;100.00;101761.31;5025349;28;45454;-81
2022/12/28 01:27:46;;;;;;;;;5.00;3.00;;;;;10.71;100.00;101762.81;5024304;28;45652;-80
2022/12/28 01:30:14;;;;;;;;;5.00;5.00;;;;;10.56;100.00;101751.34;5023811;28;45321;-82
2022/12/28 01:32:40;;;;;;;;;4.33;4.00;;;;;10.62;100.00;101759.00;5022278;28;45244;-81
2022/12/28 01:35:06;;;;;;;;;5.33;5.33;;;;;10.59;100.00;101759.25;5033097;28;45611;-81
2022/12/28 01:37:31;;;;;;;;;3.67;3.67;;;;;10.67;100.00;101762.19;5029628;28;45588;-81
2022/12/28 01:39:58;;;;;;;;;4.00;4.00;;;;;10.75;100.00;101765.16;5025448;28;46297;-82
2022/12/28 01:42:24;;;;;;;;;4.00;4.00;;;;;10.67;100.00;101756.75;5024591;28;45374;-81
2022/12/28 01:44:50;;;;;;;;;5.67;5.00;;;;;10.74;100.00;101762.59;5025997;28;45313;-80
2022/12/28 01:47:32;;;;;;;;;4.00;4.00;;;;;10.70;100.00;101752.94;5025664;28;45601;-80
2022/12/28 01:50:04;;;;;;;;;3.00;3.00;;;;;10.62;100.00;101748.13;5024962;28;46227;-80
2022/12/28 01:52:39;;;;;;;;;5.33;4.00;;;;;10.65;100.00;101745.16;5028358;28;45291;-80
2022/12/28 01:55:10;;;;;;;;;3.00;3.00;;;;;10.82;100.00;101755.50;5038955;28;45232;-81
2022/12/28 01:57:47;;;;;;;;;4.00;4.00;;;;;10.78;100.00;101748.63;5035482;28;45354;-81
2022/12/28 02:00:15;;;;;;;;;7.33;2.67;;;;;10.85;100.00;101749.84;5039901;28;46764;-80
2022/12/28 02:02:47;;;;;;;;;4.67;4.67;;;;;10.81;100.00;101747.50;5043364;28;45365;-79
2022/12/28 02:05:14;;;;;;;;;4.00;4.00;;;;;10.73;100.00;101729.09;5028378;28;45332;-80
2022/12/28 02:07:47;;;;;;;;;4.00;4.00;;;;;10.89;100.00;101737.69;5043326;28;45418;-80
2022/12/28 02:10:15;;;;;;;;;5.00;4.67;;;;;10.91;100.00;101732.16;5041546;28;47650;-80
2022/12/28 02:12:40;;;;;;;;;5.00;4.00;;;;;10.89;100.00;101723.25;5043155;28;45320;-80
2022/12/28 02:15:06;;;;;;;;;6.00;4.00;;;;;10.91;100.00;101735.72;5025716;28;45454;-80
2022/12/28 02:17:33;;;;;;;;;4.00;4.00;;;;;10.96;100.00;101727.19;5022243;28;45335;-80
2022/12/28 02:19:59;;;;;;;;;1.67;1.00;;;;;10.91;100.00;101719.41;5021437;28;46971;-80
2022/12/28 02:23:11;;;;;;;;;4.00;2.00;;;;;10.91;100.00;101722.13;5034006;28;45388;-80
2022/12/28 02:25:54;;;;;;;;;2.00;2.00;;;;;10.97;100.00;101719.91;5034248;28;45330;-81
2022/12/28 02:28:44;;;;;;;;;3.00;3.00;;;;;10.99;100.00;101712.47;5043330;28;45536;-80
2022/12/28 02:31:16;;;;;;;;;3.00;2.67;;;;;10.94;100.00;101721.03;5044301;28;46324;-80
2022/12/28 02:34:08;;;;;;;;;5.33;4.67;;;;;10.93;100.00;101709.28;5033637;28;45339;-80
2022/12/28 02:36:40;;;;;;;;;4.00;2.67;;;;;10.89;100.00;101696.91;5024763;28;45276;-80
2022/12/28 02:39:16;;;;;;;;;4.67;4.67;;;;;10.88;100.00;101705.22;5026800;28;45244;-79
2022/12/28 02:41:44;;;;;;;;;4.00;3.33;;;;;10.95;100.00;101713.75;5024874;28;46588;-80
2022/12/28 02:44:10;;;;;;;;;3.33;2.67;;;;;10.97;100.00;101703.56;5025898;28;45420;-80
2022/12/28 02:52:51;;;;;;;;;5.00;3.33;;;;;11.08;100.00;101706.28;5042420;28;45768;-80
2022/12/28 02:58:51;;;;;;;;;5.00;5.00;;;;;10.98;100.00;101678.97;5034458;28;45406;-80
2022/12/28 03:01:57;;;;;;;;;5.33;3.67;;;;;11.07;100.00;101685.50;5037943;28;45335;-80
2022/12/28 03:04:49;;;;;;;;;3.67;2.67;;;;;11.04;100.00;101688.47;5043517;28;45533;-80
2022/12/28 03:10:27;;;;;;;;;5.33;4.00;;;;;11.01;100.00;101686.91;5032767;28;45326;-80
2022/12/28 03:13:02;;;;;;;;;4.67;4.67;;;;;11.03;100.00;101674.00;5044968;28;45340;-81
2022/12/28 03:15:34;;;;;;;;;3.67;3.67;;;;;11.02;100.00;101671.44;5045665;28;45436;-80
2022/12/28 03:32:17;;;;;;;;;6.67;5.00;;;;;11.00;100.00;101640.78;5046924;28;45354;-81
2022/12/28 03:34:42;;;;;;;;;1.00;1.00;;;;;10.88;100.00;101645.41;5047182;28;45298;-81
2022/12/28 03:37:16;;;;;;;;;8.33;3.67;;;;;11.00;100.00;101638.94;5045282;28;45468;-80
2022/12/28 03:40:04;;;;;;;;;4.67;3.00;;;;;10.98;100.00;101637.34;5045653;28;45397;-80
2022/12/28 03:45:28;;;;;;;;;7.33;5.00;;;;;10.98;100.00;101621.00;5045539;28;45216;-81
2022/12/28 03:47:55;;;;;;;;;5.00;5.00;;;;;10.90;100.00;101616.22;5043711;28;45558;-81
2022/12/28 03:50:22;;;;;;;;;1.00;1.00;;;;;10.99;100.00;101625.47;5043498;28;45442;-81
2022/12/28 03:52:48;;;;;;;;;6.00;6.00;;;;;11.00;100.00;101621.75;5043793;28;45456;-81
2022/12/28 03:55:14;;;;;;;;;9.67;4.00;;;;;11.08;100.00;101614.69;5045451;28;45362;-80
2022/12/28 03:57:41;;;;;;;;;4.00;4.00;;;;;11.10;100.00;101622.72;5035683;28;48456;-80
2022/12/28 04:00:08;;;;;;;;;3.33;3.33;;;;;11.03;100.00;101616.06;5039416;28;45265;-81
2022/12/28 04:02:34;;;;;;;;;3.00;3.00;;;;;11.09;100.00;101621.00;5045439;28;45453;-81
2022/12/28 04:04:59;;;;;;;;;7.33;5.33;;;;;11.05;100.00;101609.50;5046532;28;45334;-81
2022/12/28 04:07:24;;;;;;;;;4.67;4.67;;;;;11.09;100.00;101604.66;5037050;28;47330;-80
2022/12/28 04:09:50;;;;;;;;;5.00;3.00;;;;;11.07;100.00;101610.22;5040089;28;45219;-80
2022/12/28 04:12:15;;;;;;;;;10.00;8.67;;;;;11.16;100.00;101605.88;5026410;28;45443;-80
2022/12/28 04:14:40;;;;;;;;;3.67;3.67;;;;;11.05;100.00;101589.59;5026593;28;45366;-80
2022/12/28 04:17:06;;;;;;;;;2.67;2.67;;;;;11.06;100.00;101584.03;5023344;28;48026;-81
2022/12/28 04:19:31;;;;;;;;;10.00;6.00;;;;;11.14;100.00;101595.13;5042630;28;45332;-83
2022/12/28 04:21:56;;;;;;;;;5.00;5.00;;;;;11.11;100.00;101580.91;5024612;28;45307;-80
2022/12/28 04:24:22;;;;;;;;;3.67;3.67;;;;;11.13;100.00;101579.78;5023977;28;46608;-81
2022/12/28 04:26:47;;;;;;;;;5.67;4.67;;;;;11.05;100.00;101578.72;5030082;28;47075;-81
2022/12/28 04:29:12;;;;;;;;;8.67;6.67;;;;;11.07;100.00;101584.91;5044490;28;45330;-81
2022/12/28 04:31:38;;;;;;;;;4.67;4.00;;;;;11.07;100.00;101576.72;5043265;28;45518;-81
2022/12/28 04:34:05;;;;;;;;;9.00;7.67;;;;;10.99;100.00;101571.94;5045000;28;45392;-81
2022/12/28 04:36:30;;;;;;;;;6.67;4.00;;;;;11.02;100.00;101581.72;5044066;28;45397;-81
2022/12/28 04:38:57;;;;;;;;;6.33;5.00;;;;;10.98;100.00;101575.66;5039777;28;45251;-80
2022/12/28 04:41:22;;;;;;;;;8.33;5.00;;;;;11.02;100.00;101566.25;5046026;28;45456;-81
2022/12/28 04:43:48;;;;;;;;;4.00;4.00;;;;;11.04;100.00;101569.69;5031774;28;45349;-80
2022/12/28 04:46:15;;;;;;;;;3.00;3.00;;;;;11.08;100.00;101570.31;5042921;28;47566;-81
2022/12/28 04:48:41;;;;;;;;;6.00;4.00;;;;;11.00;100.00;101578.25;5029942;28;45724;-82
2022/12/28 04:51:13;;;;;;;;;3.67;2.33;;;;;11.03;100.00;101572.56;5043953;28;45279;-81
2022/12/28 04:53:40;;;;;;;;;5.00;3.67;;;;;11.03;100.00;101573.41;5043746;28;45311;-80
2022/12/28 04:56:06;;;;;;;;;5.00;3.67;;;;;11.05;100.00;101560.53;5042799;28;46446;-80
2022/12/28 04:58:33;;;;;;;;;4.00;4.00;;;;;10.95;100.00;101561.47;5042930;28;45347;-81
2022/12/28 05:01:03;;;;;;;;;6.00;4.67;;;;;11.06;100.00;101555.97;5045060;28;45316;-80
2022/12/28 05:03:28;;;;;;;;;5.00;5.00;;;;;11.03;100.00;101545.38;5043951;28;45236;-80
2022/12/28 05:05:58;;;;;;;;;5.00;4.00;;;;;10.95;100.00;101542.44;5045073;28;45231;-80
2022/12/28 05:08:23;;;;;;;;;5.00;5.00;;;;;11.02;100.00;101555.38;5045122;28;45462;-80
2022/12/28 05:10:48;;;;;;;;;3.67;3.67;;;;;10.93;100.00;101537.13;5042524;28;45386;-80
2022/12/28 05:13:14;;;;;;;;;4.00;3.00;;;;;10.88;100.00;101542.13;5044297;28;45320;-80
2022/12/28 05:15:39;;;;;;;;;4.00;4.00;;;;;10.92;100.00;101546.28;5043792;28;45459;-82
2022/12/28 05:18:04;;;;;;;;;3.33;3.33;;;;;10.93;100.00;101543.44;5042114;28;45697;-81
2022/12/28 05:20:30;;;;;;;;;7.33;4.33;;;;;10.99;100.00;101546.63;5034516;28;45801;-81
2022/12/28 05:22:55;;;;;;;;;6.67;4.33;;;;;10.91;100.00;101539.97;5023927;28;45303;-80
2022/12/28 05:25:20;;;;;;;;;3.33;3.33;;;;;10.80;100.00;101542.75;5022432;28;48217;-80
2022/12/28 05:27:46;;;;;;;;;4.00;4.00;;;;;10.96;100.00;101553.16;5023600;28;45310;-81
2022/12/28 05:30:11;;;;;;;;;8.67;4.00;;;;;10.97;100.00;101541.31;5023771;28;45130;-81
2022/12/28 05:32:36;;;;;;;;;4.00;3.00;;;;;10.87;100.00;101535.81;5023901;28;45575;-83
2022/12/28 05:35:02;;;;;;;;;3.00;2.00;;;;;10.92;100.00;101549.88;5023612;28;46335;-80
2022/12/28 05:37:27;;;;;;;;;3.00;3.00;;;;;10.85;100.00;101526.06;5021643;28;45492;-80
2022/12/28 05:39:52;;;;;;;;;4.00;2.67;;;;;10.95;100.00;101539.72;5023786;28;45329;-80
2022/12/28 05:42:18;;;;;;;;;9.00;6.00;;;;;10.91;100.00;101530.97;5038890;28;45201;-82
2022/12/28 05:44:43;;;;;;;;;3.67;3.67;;;;;10.78;100.00;101539.31;5023217;28;45283;-80
2022/12/28 05:47:08;;;;;;;;;3.33;3.33;;;;;10.88;100.00;101537.50;5038601;28;45731;-81
2022/12/28 05:49:34;;;;;;;;;5.67;4.33;;;;;10.82;100.00;101524.44;5038889;28;45228;-79
2022/12/28 05:51:59;;;;;;;;;5.00;2.00;;;;;10.82;100.00;101529.00;5050270;28;45422;-80
2022/12/28 05:54:24;;;;;;;;;7.00;3.67;;;;;10.78;100.00;101525.72;5024753;28;45341;-80
2022/12/28 05:56:51;;;;;;;;;4.67;4.67;;;;;10.90;100.00;101535.53;5028036;28;45275;-78
2022/12/28 05:59:16;;;;;;;;;4.67;4.67;;;;;10.91;100.00;101529.09;5023472;28;45511;-79
2022/12/28 06:01:42;;;;;;;;;3.00;3.00;;;;;10.93;100.00;101520.81;5023801;28;45347;-78
2022/12/28 06:04:15;;;;;;;;;5.33;5.33;;;;;10.90;100.00;101524.66;5023165;28;45446;-78
2022/12/28 06:06:41;;;;;;;;;4.67;4.67;;;;;10.91;100.00;101518.22;5021460;28;45634;-78
2022/12/28 06:09:07;;;;;;;;;4.33;2.33;;;;;10.85;100.00;101516.03;5023246;28;45272;-81
2022/12/28 06:11:32;;;;;;;;;4.67;2.00;;;;;10.87;100.00;101508.63;5021886;28;45549;-79
2022/12/28 06:13:59;;;;;;;;;3.67;3.67;;;;;10.83;100.00;101520.75;5022824;28;45291;-79
2022/12/28 06:16:27;;;;;;;;;2.00;2.00;;;;;10.89;100.00;101509.34;5023033;28;45264;-78
2022/12/28 06:18:53;;;;;;;;;4.33;3.67;;;;;10.87;100.00;101507.75;5026433;28;45165;-79
2022/12/28 06:21:18;;;;;;;;;7.67;5.67;;;;;10.79;100.00;101505.69;5026971;28;45243;-79
2022/12/28 06:23:45;;;;;;;;;3.00;2.00;;;;;10.86;100.00;101496.03;5023021;28;46554;-81
2022/12/28 06:26:19;;;;;;;;;4.67;4.67;;;;;10.81;100.00;101487.38;5022814;28;45296;-79
2022/12/28 06:28:45;;;;;;;;;10.67;6.00;;;;;10.95;100.00;101493.50;5022894;28;45312;-79
2022/12/28 06:31:22;;;;;;;;;7.00;4.00;;;;;10.84;100.00;101488.97;5023261;28;45160;-79
2022/12/28 06:33:49;;;;;;;;;4.67;4.67;;;;;10.93;100.00;101497.22;5022844;28;45718;-79
2022/12/28 06:36:20;;;;;;;;;7.33;7.33;;;;;10.88;100.00;101483.13;5022562;28;45260;-79
2022/12/28 06:38:46;;;;;;;;;4.00;4.00;;;;;10.90;100.00;101477.56;5022957;28;45485;-79
2022/12/28 06:41:13;;;;;;;;;4.67;4.67;;;;;10.99;100.00;101475.91;5023196;28;45228;-79
2022/12/28 06:43:40;;;;;;;;;3.33;3.33;;;;;10.98;100.00;101474.19;5037643;28;47458;-80
2022/12/28 06:46:06;;;;;;;;;4.00;4.00;;;;;10.97;100.00;101475.19;5037784;28;45402;-78
2022/12/28 06:48:33;;;;;;;;;4.67;4.67;;;;;10.98;100.00;101463.31;5022548;28;45304;-78
2022/12/28 06:51:01;;;;;;;;;3.00;3.00;;;;;10.93;100.00;101474.59;5029061;28;45429;-79
2022/12/28 06:53:29;;;;;;;;;6.67;6.00;;;;;10.99;100.00;101463.19;5041244;28;47131;-79
2022/12/28 06:55:57;;;;;;;;;6.00;5.33;;;;;11.03;100.00;101459.19;5042455;28;45408;-79
2022/12/28 06:58:24;;;;;;;;;6.33;4.67;;;;;10.98;100.00;101463.31;5028933;28;45257;-79
2022/12/28 07:00:49;;;;;;;;;4.00;4.00;;;;;11.09;100.00;101458.69;5038189;28;45638;-78
2022/12/28 07:03:15;;;;;;;;;6.33;5.00;;;;;11.05;100.00;101461.78;5022182;28;45700;-79
2022/12/28 07:05:40;;;;;;;;;4.00;4.00;;;;;11.02;100.00;101457.50;5028775;28;45356;-79
2022/12/28 07:08:05;;;;;;;;;5.67;5.67;;;;;11.05;100.00;101454.50;5027815;28;45289;-79
2022/12/28 07:10:32;;;;;;;;;6.67;4.00;;;;;11.06;100.00;101449.91;5022618;28;45664;-79
2022/12/28 07:12:58;;;;;;;;;4.00;4.00;;;;;11.13;100.00;101449.25;5022636;28;45553;-78
2022/12/28 07:15:24;;;;;;;;;10.33;5.67;;;;;11.15;100.00;101458.13;5020930;28;45339;-80
2022/12/28 07:17:49;;;;;;;;;9.00;5.00;;;;;11.10;100.00;101443.22;5024833;28;46632;-79
2022/12/28 07:20:14;;;;;;;;;2.00;1.00;;;;;11.09;100.00;101441.50;5032202;28;45269;-78
2022/12/28 07:22:40;;;;;;;;;4.33;4.00;;;;;11.02;100.00;101440.31;5025299;28;45774;-80
2022/12/28 07:25:05;;;;;;;;;6.00;6.00;;;;;11.09;100.00;101433.34;5023818;28;45316;-80
2022/12/28 07:27:31;;;;;;;;;5.33;5.33;;;;;11.15;100.00;101439.09;5040524;28;45521;-78
2022/12/28 07:29:56;;;;;;;;;4.00;4.00;;;;;11.14;100.00;101429.22;5041109;28;45276;-79
2022/12/28 07:32:22;;;;;;;;;6.00;6.00;;;;;11.13;100.00;101424.75;5025420;28;45389;-79
2022/12/28 07:34:47;;;;;;;;;4.00;4.00;;;;;11.13;100.00;101432.06;5039885;28;45267;-79
2022/12/28 07:37:12;;;;;;;;;4.00;4.00;;;;;11.14;100.00;101423.78;5024318;28;45269;-80
2022/12/28 07:39:38;;;;;;;;;5.67;3.67;;;;;11.10;100.00;101416.03;5025922;28;45229;-79
2022/12/28 07:42:05;;;;;;;;;6.00;6.00;;;;;11.18;100.00;101425.22;5025054;28;45300;-79
2022/12/28 07:44:31;;;;;;;;;4.67;4.67;;;;;11.23;100.00;101424.81;5024979;28;45216;-79
2022/12/28 07:46:56;;;;;;;;;4.67;3.33;;;;;11.07;100.00;101409.00;5023842;28;45347;-81
2022/12/28 07:49:22;;;;;;;;;6.67;5.00;;;;;11.17;100.00;101411.78;5025883;28;45295;-79
2022/12/28 07:51:48;;;;;;;;;2.00;2.00;;;;;11.24;100.00;101415.66;5037493;28;46516;-80
2022/12/28 07:54:13;;;;;;;;;8.67;5.00;;;;;11.27;100.00;101409.94;5045097;28;45458;-80
2022/12/28 07:56:39;;;;;;;;;4.00;2.33;;;;;11.24;100.00;101410.22;5034128;28;45324;-78
2022/12/28 07:59:05;;;;;;;;;5.00;5.00;;;;;11.27;100.00;101407.22;5026370;28;45501;-79
2022/12/28 08:01:33;;;;;;;;;4.33;3.00;;;;;11.24;100.00;101394.78;5007165;28;47485;-80
2022/12/28 08:04:01;;;;;;;;;8.00;6.00;;;;;11.23;100.00;101395.75;5024457;28;45232;-79
2022/12/28 08:06:28;;;;;;;;;6.00;5.00;;;;;11.24;100.00;101389.31;5040223;28;45291;-78
2022/12/28 08:08:58;;;;;;;;;5.33;5.33;;;;;11.20;100.00;101400.59;5025275;28;45421;-79
2022/12/28 08:11:26;;;;;;;;;5.00;5.00;;;;;11.25;100.00;101390.19;5024475;28;46209;-79
2022/12/28 08:13:54;;;;;;;;;5.33;4.00;;;;;11.17;100.00;101390.00;5024713;28;45362;-80
2022/12/28 08:16:21;;;;;;;;;3.33;3.33;;;;;11.26;100.00;101383.72;5025288;28;45334;-79
2022/12/28 08:18:47;;;;;;;;;5.33;5.33;;;;;11.30;100.00;101387.91;5027645;28;45223;-79
2022/12/28 08:21:16;;;;;;;;;11.00;5.33;;;;;11.28;100.00;101377.16;5029155;28;45422;-79
2022/12/28 08:23:42;;;;;;;;;4.00;4.00;;;;;11.15;100.00;101364.81;5024382;28;45289;-80
2022/12/28 08:26:10;;;;;;;;;4.67;4.67;;;;;11.26;100.00;101368.28;5024592;28;45241;-79
2022/12/28 08:28:37;;;;;;;;;2.67;2.67;;;;;11.24;100.00;101375.72;5022487;28;45414;-80
2022/12/28 08:31:08;;;;;;;;;5.33;5.33;;;;;11.16;100.00;101367.41;5024303;28;45592;-79
2022/12/28 08:33:33;;;;;;;;;9.00;6.33;;;;;11.02;100.00;101353.31;5024391;28;45390;-80
2022/12/28 08:35:58;;;;;;;;;4.67;4.33;;;;;11.21;100.00;101356.94;5023055;28;45319;-80
2022/12/28 08:38:24;;;;;;;;;6.33;6.33;;;;;11.27;100.00;101353.69;5025115;28;45641;-78
2022/12/28 08:40:56;;;;;;;;;4.67;3.00;;;;;11.16;100.00;101358.38;5024157;28;46098;-80
2022/12/28 08:43:21;;;;;;;;;5.67;5.33;;;;;11.25;100.00;101371.16;5024327;28;45354;-81
2022/12/28 08:46:06;;;;;;;;;9.00;6.67;;;;;11.17;100.00;101357.38;5024238;28;45320;-79
2022/12/28 08:48:33;;;;;;;;;5.67;5.67;;;;;11.24;100.00;101347.66;5020921;28;45359;-81
2022/12/28 08:51:07;;;;;;;;;7.00;6.00;;;;;11.39;100.00;101350.84;5029749;28;45664;-80
2022/12/28 08:53:33;;;;;;;;;4.67;4.33;;;;;11.29;100.00;101361.72;5044217;28;45279;-79
2022/12/28 08:56:13;;;;;;;;;4.67;4.67;;;;;11.35;100.00;101347.53;5044429;28;45315;-82
2022/12/28 08:58:40;;;;;;;;;6.00;5.67;;;;;11.33;100.00;101346.81;5024579;28;45265;-79
2022/12/28 09:01:07;;;;;;;;;4.00;3.33;;;;;11.31;100.00;101346.97;5024301;28;45461;-80
2022/12/28 09:03:38;;;;;;;;;7.00;4.33;;;;;11.31;100.00;101329.78;5024490;28;45349;-79
2022/12/28 09:06:10;;;;;;;;;8.00;4.00;;;;;11.43;100.00;101347.72;5022915;28;45332;-80
2022/12/28 09:08:36;;;;;;;;;6.00;6.00;;;;;11.40;100.00;101326.22;5024417;28;45312;-80
2022/12/28 09:11:03;;;;;;;;;6.33;2.67;;;;;11.43;100.00;101325.09;5032852;28;47254;-81
2022/12/28 09:13:29;;;;;;;;;4.00;4.00;;;;;11.43;100.00;101322.38;5026420;28;45169;-79
2022/12/28 09:15:56;;;;;;;;;4.67;4.67;;;;;11.48;100.00;101322.78;5023976;28;45361;-79
2022/12/28 09:18:22;;;;;;;;;3.67;3.67;;;;;11.49;100.00;101330.81;5023948;28;45411;-79
2022/12/28 09:20:47;;;;;;;;;8.67;4.33;;;;;11.49;100.00;101330.81;5041987;28;45348;-81
2022/12/28 09:23:12;;;;;;;;;6.67;4.67;;;;;11.54;100.00;101312.19;5042324;28;45323;-81
2022/12/28 09:25:38;;;;;;;;;5.00;3.33;;;;;11.63;100.00;101322.25;5043828;28;45349;-80
2022/12/28 09:28:03;;;;;;;;;3.33;3.00;;;;;11.53;100.00;101321.41;5044012;28;45441;-80
2022/12/28 09:30:28;;;;;;;;;3.00;3.00;;;;;11.61;100.00;101312.53;5041881;28;46688;-80
2022/12/28 09:33:57;;;;;;;;;6.00;6.00;;;;;11.59;100.00;101309.94;5043373;28;45323;-80
2022/12/28 09:35:39;;;;;;;;;3.33;3.33;;;;;11.59;100.00;101299.06;5043440;28;45525;-79
2022/12/28 09:38:04;;;;;;;;;3.67;3.67;;;;;11.60;100.00;101311.66;5023298;28;45667;-79
2022/12/28 09:40:32;;;;;;;;;5.00;4.00;;;;;11.52;100.00;101303.34;5038163;28;46613;-79
2022/12/28 09:42:57;;;;;;;;;4.33;4.33;;;;;11.68;100.00;101313.69;5042793;28;45223;-79
2022/12/28 09:45:25;;;;;;;;;4.00;4.00;;;;;11.74;100.00;101309.53;5029742;28;45207;-79
2022/12/28 09:47:57;;;;;;;;;8.00;5.00;;;;;11.73;100.00;101300.50;5043465;28;45242;-80
2022/12/28 09:50:30;;;;;;;;;5.00;4.00;;;;;11.55;100.00;101313.94;5042702;28;46454;-79
2022/12/28 09:53:04;;;;;;;;;5.00;5.00;;;;;11.76;100.00;101310.28;5041664;28;45345;-79
2022/12/28 09:55:32;;;;;;;;;4.00;4.00;;;;;11.79;100.00;101304.53;5041806;28;45327;-80
2022/12/28 09:57:59;;;;;;;;;8.67;4.67;;;;;11.82;100.00;101298.81;5033256;28;45161;-80
2022/12/28 10:00:31;;;;;;;;;3.00;3.00;;;;;11.60;100.00;101300.78;5023057;28;46577;-80
2022/12/28 10:03:01;;;;;;;;;2.33;0.33;;;;;11.87;100.00;101308.28;5023494;28;45445;-80
2022/12/28 10:05:28;;;;;;;;;6.00;6.00;;;;;11.90;100.00;101305.28;5021644;28;45386;-80
2022/12/28 10:07:56;;;;;;;;;3.67;3.67;;;;;11.96;100.00;101296.53;5039149;28;45499;-80
2022/12/28 10:10:22;;;;;;;;;8.00;5.67;;;;;11.95;100.00;101296.66;5021328;28;46470;-80
2022/12/28 10:12:50;;;;;;;;;6.00;4.67;;;;;12.16;100.00;101286.47;5022080;28;45307;-80
2022/12/28 10:15:16;;;;;;;;;4.00;4.00;;;;;12.15;100.00;101292.03;5041826;28;45300;-80
2022/12/28 10:17:42;;;;;;;;;8.33;5.33;;;;;12.23;100.00;101290.31;5030386;28;45381;-80
2022/12/28 10:20:17;;;;;;;;;2.33;2.33;;;;;12.05;100.00;101273.84;5037222;28;48411;-79
2022/12/28 10:22:47;;;;;;;;;4.00;4.00;;;;;12.15;100.00;101273.84;5022594;28;45380;-80
2022/12/28 10:25:18;;;;;;;;;3.00;3.00;;;;;12.27;100.00;101267.22;5022930;28;45202;-79
2022/12/28 10:27:44;;;;;;;;;7.00;4.67;;;;;12.11;100.00;101272.44;5021490;28;45363;-78
2022/12/28 10:30:17;;;;;;;;;4.33;4.33;;;;;12.11;100.00;101266.13;5037941;28;48413;-80
2022/12/28 10:32:54;;;;;;;;;5.00;5.00;;;;;12.27;100.00;101278.09;5022505;28;45312;-80
2022/12/28 10:35:35;;;;;;;;;4.00;4.00;;;;;12.07;100.00;101282.75;5021181;28;45346;-80
2022/12/28 10:38:04;;;;;;;;;5.00;5.00;;;;;11.88;100.00;101273.72;5030143;28;45253;-79
2022/12/28 10:40:34;;;;;;;;;4.00;4.00;;;;;11.98;100.00;101261.81;5042647;28;46288;-81
2022/12/28 10:42:59;;;;;;;;;4.00;4.00;;;;;12.14;100.00;101266.66;5042777;28;45301;-80
2022/12/28 10:45:36;;;;;;;;;2.67;2.67;;;;;12.18;100.00;101261.81;5041238;28;45295;-79
2022/12/28 10:48:08;;;;;;;;;4.00;3.33;;;;;12.10;100.00;101254.38;5043098;28;45314;-80
2022/12/28 10:50:49;;;;;;;;;5.00;5.00;;;;;12.26;100.00;101248.31;5041952;28;45342;-80
2022/12/28 10:53:31;;;;;;;;;3.00;3.00;;;;;12.33;100.00;101250.31;5044591;28;45548;-80
2022/12/28 10:56:12;;;;;;;;;3.33;3.33;;;;;12.17;100.00;101227.38;5046480;28;45297;-80
2022/12/28 10:58:44;;;;;;;;;3.33;3.33;;;;;12.14;100.00;101233.13;5030390;28;45242;-80
2022/12/28 11:01:12;;;;;;;;;5.67;3.33;;;;;12.06;100.00;101242.88;5026193;28;45690;-79
2022/12/28 11:03:42;;;;;;;;;4.33;3.67;;;;;11.98;100.00;101234.56;5024394;28;45276;-80
2022/12/28 11:06:18;;;;;;;;;3.00;3.00;;;;;12.01;100.00;101238.88;5025868;28;45340;-80
2022/12/28 11:08:58;;;;;;;;;8.00;4.00;;;;;12.00;100.00;101216.25;5026301;28;45514;-80
2022/12/28 11:11:24;;;;;;;;;3.67;3.00;;;;;12.04;100.00;101186.88;5041225;28;46549;-80
2022/12/28 11:13:55;;;;;;;;;5.33;4.00;;;;;12.16;100.00;101204.75;5025869;28;45236;-80
2022/12/28 11:16:20;;;;;;;;;4.33;4.33;;;;;12.23;100.00;101186.78;5025946;28;45260;-80
2022/12/28 11:18:46;;;;;;;;;3.33;3.33;;;;;12.09;100.00;101168.22;5027182;28;45520;-80
2022/12/28 11:21:18;;;;;;;;;4.00;4.00;;;;;12.16;100.00;101160.28;5030072;28;45763;-81
2022/12/28 11:23:45;;;;;;;;;4.00;3.00;;;;;12.23;100.00;101151.38;5035208;28;45940;-80
2022/12/28 11:26:11;;;;;;;;;2.67;2.67;;;;;12.31;100.00;101148.78;5040058;28;45458;-80
2022/12/28 11:28:40;;;;;;;;;5.00;3.00;;;;;12.28;100.00;101135.44;5026650;28;45552;-80
2022/12/28 11:31:08;;;;;;;;;5.33;4.00;;;;;12.36;100.00;101145.59;5040505;28;45564;-80
2022/12/28 11:34:05;;;;;;;;;2.33;2.33;;;;;12.43;100.00;101147.56;5040769;28;45388;-80
2022/12/28 11:36:38;;;;;;;;;2.33;2.33;;;;;12.42;100.00;101145.84;5031223;28;45352;-80
2022/12/28 11:39:25;;;;;;;;;4.33;2.67;;;;;12.33;100.00;101149.50;5045556;28;45529;-80
2022/12/28 11:41:58;;;;;;;;;3.00;3.00;;;;;12.36;100.00;101146.44;5045147;28;45550;-80
2022/12/28 11:44:44;;;;;;;;;4.00;4.00;;;;;12.29;100.00;101128.97;5045365;28;45375;-81
2022/12/28 11:47:15;;;;;;;;;2.67;2.67;;;;;12.38;100.00;101125.38;5043852;28;45312;-81
2022/12/28 11:49:43;;;;;;;;;2.67;2.67;;;;;12.35;100.00;101127.50;5045670;28;45454;-78
2022/12/28 11:52:22;;;;;;;;;4.00;4.00;;;;;12.37;100.00;101114.59;5042428;28;45271;-80
2022/12/28 11:54:51;;;;;;;;;4.67;3.33;;;;;12.34;100.00;101125.81;5034760;28;45291;-79